sensor_id;sensor_type;location;lat;lon;timestamp;P1;durP1;ratioP1;P2;durP2;ratioP2
4889;SDS011;2459;42.268;23.112;2023-06-19T00:00:49;12.50;;;9.40;;
4889;SDS011;2459;42.268;23.112;2023-06-19T00:03:15;12.83;;;9.77;;
4889;SDS011;2459;42.268;23.112;2023-06-19T00:05:42;20.07;;;10.87;;
4889;SDS011;2459;42.268;23.112;2023-06-19T00:08:08;13.57;;;10.30;;
4889;SDS011;2459;42.268;23.112;2023-06-19T00:10:36;15.17;;;10.43;;
4889;SDS011;2459;42.268;23.112;2023-06-19T00:13:03;23.97;;;11.37;;
4889;SDS011;2459;42.268;23.112;2023-06-19T00:15:29;19.50;;;10.67;;
4889;SDS011;2459;42.268;23.112;2023-06-19T00:17:55;15.83;;;9.70;;
4889;SDS011;2459;42.268;23.112;2023-06-19T00:20:23;13.07;;;9.80;;
4889;SDS011;2459;42.268;23.112;2023-06-19T00:22:50;19.40;;;11.00;;
4889;SDS011;2459;42.268;23.112;2023-06-19T00:25:17;17.43;;;11.03;;
4889;SDS011;2459;42.268;23.112;2023-06-19T00:27:46;24.67;;;11.13;;
4889;SDS011;2459;42.268;23.112;2023-06-19T00:30:12;17.30;;;12.30;;
4889;SDS011;2459;42.268;23.112;2023-06-19T00:32:39;18.37;;;12.87;;
4889;SDS011;2459;42.268;23.112;2023-06-19T00:35:12;20.13;;;10.63;;
4889;SDS011;2459;42.268;23.112;2023-06-19T00:37:39;25.17;;;11.83;;
4889;SDS011;2459;42.268;23.112;2023-06-19T00:40:09;17.13;;;11.63;;
4889;SDS011;2459;42.268;23.112;2023-06-19T00:42:36;52.57;;;11.63;;
4889;SDS011;2459;42.268;23.112;2023-06-19T00:45:05;17.90;;;11.20;;
4889;SDS011;2459;42.268;23.112;2023-06-19T00:47:33;23.70;;;10.37;;
4889;SDS011;2459;42.268;23.112;2023-06-19T00:50:01;24.83;;;11.17;;
4889;SDS011;2459;42.268;23.112;2023-06-19T00:52:28;14.13;;;10.60;;
4889;SDS011;2459;42.268;23.112;2023-06-19T00:54:54;22.60;;;12.60;;
4889;SDS011;2459;42.268;23.112;2023-06-19T00:57:21;16.50;;;10.70;;
4889;SDS011;2459;42.268;23.112;2023-06-19T00:59:48;19.00;;;11.20;;
4889;SDS011;2459;42.268;23.112;2023-06-19T01:02:17;17.03;;;11.53;;
4889;SDS011;2459;42.268;23.112;2023-06-19T01:04:48;23.93;;;11.07;;
4889;SDS011;2459;42.268;23.112;2023-06-19T01:07:15;15.67;;;11.80;;
4889;SDS011;2459;42.268;23.112;2023-06-19T01:09:44;15.97;;;10.67;;
4889;SDS011;2459;42.268;23.112;2023-06-19T01:12:13;24.83;;;12.23;;
4889;SDS011;2459;42.268;23.112;2023-06-19T01:14:44;21.67;;;11.37;;
4889;SDS011;2459;42.268;23.112;2023-06-19T01:17:13;29.33;;;13.13;;
4889;SDS011;2459;42.268;23.112;2023-06-19T01:19:41;23.23;;;11.87;;
4889;SDS011;2459;42.268;23.112;2023-06-19T01:22:09;18.03;;;11.63;;
4889;SDS011;2459;42.268;23.112;2023-06-19T01:24:36;22.80;;;12.43;;
4889;SDS011;2459;42.268;23.112;2023-06-19T01:27:02;14.00;;;10.63;;
4889;SDS011;2459;42.268;23.112;2023-06-19T01:29:29;21.60;;;12.00;;
4889;SDS011;2459;42.268;23.112;2023-06-19T01:31:58;27.83;;;11.63;;
4889;SDS011;2459;42.268;23.112;2023-06-19T01:34:25;23.10;;;12.60;;
4889;SDS011;2459;42.268;23.112;2023-06-19T01:36:53;25.77;;;11.70;;
4889;SDS011;2459;42.268;23.112;2023-06-19T01:39:23;24.67;;;11.33;;
4889;SDS011;2459;42.268;23.112;2023-06-19T01:41:50;28.03;;;11.50;;
4889;SDS011;2459;42.268;23.112;2023-06-19T01:44:17;18.43;;;10.17;;
4889;SDS011;2459;42.268;23.112;2023-06-19T01:46:46;19.27;;;11.90;;
4889;SDS011;2459;42.268;23.112;2023-06-19T01:49:13;23.90;;;11.70;;
4889;SDS011;2459;42.268;23.112;2023-06-19T01:51:39;15.83;;;11.50;;
4889;SDS011;2459;42.268;23.112;2023-06-19T01:54:06;30.67;;;11.00;;
4889;SDS011;2459;42.268;23.112;2023-06-19T01:56:35;22.53;;;10.57;;
4889;SDS011;2459;42.268;23.112;2023-06-19T01:59:02;27.23;;;10.53;;
4889;SDS011;2459;42.268;23.112;2023-06-19T02:01:28;16.20;;;10.73;;
4889;SDS011;2459;42.268;23.112;2023-06-19T02:03:55;20.60;;;10.80;;
4889;SDS011;2459;42.268;23.112;2023-06-19T02:06:21;17.53;;;9.90;;
4889;SDS011;2459;42.268;23.112;2023-06-19T02:08:47;27.43;;;9.53;;
4889;SDS011;2459;42.268;23.112;2023-06-19T02:11:14;14.57;;;10.33;;
4889;SDS011;2459;42.268;23.112;2023-06-19T02:13:42;15.33;;;9.40;;
4889;SDS011;2459;42.268;23.112;2023-06-19T02:16:08;17.30;;;10.63;;
4889;SDS011;2459;42.268;23.112;2023-06-19T02:18:35;19.50;;;9.60;;
4889;SDS011;2459;42.268;23.112;2023-06-19T02:21:01;13.60;;;10.07;;
4889;SDS011;2459;42.268;23.112;2023-06-19T02:23:28;20.60;;;10.13;;
4889;SDS011;2459;42.268;23.112;2023-06-19T02:25:54;15.47;;;10.10;;
4889;SDS011;2459;42.268;23.112;2023-06-19T02:28:20;14.57;;;9.37;;
4889;SDS011;2459;42.268;23.112;2023-06-19T02:30:49;15.20;;;9.33;;
4889;SDS011;2459;42.268;23.112;2023-06-19T02:33:15;17.23;;;8.93;;
4889;SDS011;2459;42.268;23.112;2023-06-19T02:35:42;12.87;;;9.83;;
4889;SDS011;2459;42.268;23.112;2023-06-19T02:38:09;18.70;;;10.10;;
4889;SDS011;2459;42.268;23.112;2023-06-19T02:40:36;21.47;;;10.00;;
4889;SDS011;2459;42.268;23.112;2023-06-19T02:43:03;19.17;;;8.50;;
4889;SDS011;2459;42.268;23.112;2023-06-19T02:45:29;15.43;;;9.83;;
4889;SDS011;2459;42.268;23.112;2023-06-19T02:47:57;17.70;;;9.20;;
4889;SDS011;2459;42.268;23.112;2023-06-19T02:50:23;14.87;;;9.90;;
4889;SDS011;2459;42.268;23.112;2023-06-19T02:52:50;15.83;;;10.30;;
4889;SDS011;2459;42.268;23.112;2023-06-19T02:55:16;19.60;;;10.20;;
4889;SDS011;2459;42.268;23.112;2023-06-19T02:57:43;12.63;;;10.03;;
4889;SDS011;2459;42.268;23.112;2023-06-19T03:00:10;17.20;;;11.90;;
4889;SDS011;2459;42.268;23.112;2023-06-19T03:02:37;19.80;;;12.17;;
4889;SDS011;2459;42.268;23.112;2023-06-19T03:05:10;17.00;;;11.20;;
4889;SDS011;2459;42.268;23.112;2023-06-19T03:07:37;23.17;;;11.27;;
4889;SDS011;2459;42.268;23.112;2023-06-19T03:10:05;15.67;;;11.80;;
4889;SDS011;2459;42.268;23.112;2023-06-19T03:12:31;16.67;;;11.57;;
4889;SDS011;2459;42.268;23.112;2023-06-19T03:14:58;23.37;;;11.37;;
4889;SDS011;2459;42.268;23.112;2023-06-19T03:17:24;24.77;;;11.70;;
4889;SDS011;2459;42.268;23.112;2023-06-19T03:19:50;26.40;;;11.17;;
4889;SDS011;2459;42.268;23.112;2023-06-19T03:22:19;25.03;;;12.63;;
4889;SDS011;2459;42.268;23.112;2023-06-19T03:24:45;15.87;;;10.53;;
4889;SDS011;2459;42.268;23.112;2023-06-19T03:27:12;21.30;;;10.43;;
4889;SDS011;2459;42.268;23.112;2023-06-19T03:29:38;35.37;;;11.60;;
4889;SDS011;2459;42.268;23.112;2023-06-19T03:32:05;19.23;;;11.13;;
4889;SDS011;2459;42.268;23.112;2023-06-19T03:34:32;28.67;;;10.50;;
4889;SDS011;2459;42.268;23.112;2023-06-19T03:36:58;23.83;;;11.37;;
4889;SDS011;2459;42.268;23.112;2023-06-19T03:39:26;21.40;;;12.23;;
4889;SDS011;2459;42.268;23.112;2023-06-19T03:41:52;18.40;;;10.70;;
4889;SDS011;2459;42.268;23.112;2023-06-19T03:44:19;22.13;;;11.90;;
4889;SDS011;2459;42.268;23.112;2023-06-19T03:46:45;31.83;;;11.27;;
4889;SDS011;2459;42.268;23.112;2023-06-19T03:49:12;26.27;;;11.93;;
4889;SDS011;2459;42.268;23.112;2023-06-19T03:51:38;21.63;;;12.50;;
4889;SDS011;2459;42.268;23.112;2023-06-19T03:54:05;17.10;;;11.70;;
4889;SDS011;2459;42.268;23.112;2023-06-19T03:56:32;34.13;;;11.17;;
4889;SDS011;2459;42.268;23.112;2023-06-19T03:58:59;21.60;;;10.87;;
4889;SDS011;2459;42.268;23.112;2023-06-19T04:01:25;18.83;;;9.50;;
4889;SDS011;2459;42.268;23.112;2023-06-19T04:03:52;40.67;;;11.20;;
4889;SDS011;2459;42.268;23.112;2023-06-19T04:06:18;25.43;;;11.10;;
4889;SDS011;2459;42.268;23.112;2023-06-19T04:08:45;19.27;;;8.83;;
4889;SDS011;2459;42.268;23.112;2023-06-19T04:11:11;23.20;;;9.10;;
4889;SDS011;2459;42.268;23.112;2023-06-19T04:13:39;24.70;;;8.50;;
4889;SDS011;2459;42.268;23.112;2023-06-19T04:16:05;18.90;;;7.80;;
4889;SDS011;2459;42.268;23.112;2023-06-19T04:18:32;17.83;;;7.70;;
4889;SDS011;2459;42.268;23.112;2023-06-19T04:20:58;11.63;;;7.03;;
4889;SDS011;2459;42.268;23.112;2023-06-19T04:23:25;19.80;;;7.30;;
4889;SDS011;2459;42.268;23.112;2023-06-19T04:25:51;13.83;;;8.10;;
4889;SDS011;2459;42.268;23.112;2023-06-19T04:28:17;13.60;;;7.07;;
4889;SDS011;2459;42.268;23.112;2023-06-19T04:30:45;12.10;;;6.87;;
4889;SDS011;2459;42.268;23.112;2023-06-19T04:33:12;14.67;;;6.80;;
4889;SDS011;2459;42.268;23.112;2023-06-19T04:35:38;23.17;;;7.27;;
4889;SDS011;2459;42.268;23.112;2023-06-19T04:38:06;24.63;;;7.77;;
4889;SDS011;2459;42.268;23.112;2023-06-19T04:40:32;14.10;;;5.90;;
4889;SDS011;2459;42.268;23.112;2023-06-19T04:42:59;12.67;;;5.50;;
4889;SDS011;2459;42.268;23.112;2023-06-19T04:45:25;11.50;;;5.90;;
4889;SDS011;2459;42.268;23.112;2023-06-19T04:47:53;9.37;;;6.07;;
4889;SDS011;2459;42.268;23.112;2023-06-19T04:50:20;7.20;;;5.00;;
4889;SDS011;2459;42.268;23.112;2023-06-19T04:52:47;6.50;;;5.30;;
4889;SDS011;2459;42.268;23.112;2023-06-19T04:55:15;13.53;;;6.37;;
4889;SDS011;2459;42.268;23.112;2023-06-19T04:57:42;19.60;;;7.07;;
4889;SDS011;2459;42.268;23.112;2023-06-19T05:00:08;12.90;;;6.20;;
4889;SDS011;2459;42.268;23.112;2023-06-19T05:02:35;8.90;;;6.37;;
4889;SDS011;2459;42.268;23.112;2023-06-19T05:05:03;13.43;;;5.33;;
4889;SDS011;2459;42.268;23.112;2023-06-19T05:07:30;10.67;;;5.30;;
4889;SDS011;2459;42.268;23.112;2023-06-19T05:09:57;8.70;;;5.40;;
4889;SDS011;2459;42.268;23.112;2023-06-19T05:12:23;8.07;;;5.40;;
4889;SDS011;2459;42.268;23.112;2023-06-19T05:14:50;10.60;;;5.70;;
4889;SDS011;2459;42.268;23.112;2023-06-19T05:17:16;10.20;;;5.90;;
4889;SDS011;2459;42.268;23.112;2023-06-19T05:19:42;9.97;;;6.17;;
4889;SDS011;2459;42.268;23.112;2023-06-19T05:22:10;9.83;;;6.30;;
4889;SDS011;2459;42.268;23.112;2023-06-19T05:24:37;5.90;;;5.17;;
4889;SDS011;2459;42.268;23.112;2023-06-19T05:27:03;6.87;;;6.13;;
4889;SDS011;2459;42.268;23.112;2023-06-19T05:29:30;6.60;;;5.70;;
4889;SDS011;2459;42.268;23.112;2023-06-19T05:31:56;11.10;;;5.70;;
4889;SDS011;2459;42.268;23.112;2023-06-19T05:34:23;12.80;;;5.57;;
4889;SDS011;2459;42.268;23.112;2023-06-19T05:36:49;5.83;;;4.43;;
4889;SDS011;2459;42.268;23.112;2023-06-19T05:39:17;8.27;;;5.13;;
4889;SDS011;2459;42.268;23.112;2023-06-19T05:41:44;9.93;;;6.03;;
4889;SDS011;2459;42.268;23.112;2023-06-19T05:44:11;8.37;;;4.97;;
4889;SDS011;2459;42.268;23.112;2023-06-19T05:46:40;8.20;;;4.43;;
4889;SDS011;2459;42.268;23.112;2023-06-19T05:49:06;8.50;;;4.70;;
4889;SDS011;2459;42.268;23.112;2023-06-19T05:51:33;13.43;;;4.90;;
4889;SDS011;2459;42.268;23.112;2023-06-19T05:53:59;10.40;;;5.50;;
4889;SDS011;2459;42.268;23.112;2023-06-19T05:56:30;9.63;;;5.43;;
4889;SDS011;2459;42.268;23.112;2023-06-19T05:58:58;5.47;;;4.93;;
4889;SDS011;2459;42.268;23.112;2023-06-19T06:01:25;7.10;;;5.50;;
4889;SDS011;2459;42.268;23.112;2023-06-19T06:03:52;10.13;;;5.47;;
4889;SDS011;2459;42.268;23.112;2023-06-19T06:06:19;11.20;;;5.73;;
4889;SDS011;2459;42.268;23.112;2023-06-19T06:08:45;10.73;;;5.50;;
4889;SDS011;2459;42.268;23.112;2023-06-19T06:11:12;11.73;;;4.97;;
4889;SDS011;2459;42.268;23.112;2023-06-19T06:13:40;14.20;;;5.40;;
4889;SDS011;2459;42.268;23.112;2023-06-19T06:16:06;10.87;;;4.30;;
4889;SDS011;2459;42.268;23.112;2023-06-19T06:21:59;7.35;;;4.90;;
4889;SDS011;2459;42.268;23.112;2023-06-19T06:24:40;6.30;;;4.70;;
4889;SDS011;2459;42.268;23.112;2023-06-19T06:27:34;11.55;;;4.45;;
4889;SDS011;2459;42.268;23.112;2023-06-19T06:30:07;6.97;;;5.30;;
4889;SDS011;2459;42.268;23.112;2023-06-19T06:32:34;13.00;;;5.22;;
4889;SDS011;2459;42.268;23.112;2023-06-19T06:35:00;7.07;;;4.70;;
4889;SDS011;2459;42.268;23.112;2023-06-19T06:37:27;11.23;;;5.47;;
4889;SDS011;2459;42.268;23.112;2023-06-19T06:39:53;11.65;;;5.20;;
4889;SDS011;2459;42.268;23.112;2023-06-19T06:42:20;7.85;;;4.50;;
4889;SDS011;2459;42.268;23.112;2023-06-19T06:44:46;9.82;;;4.47;;
4889;SDS011;2459;42.268;23.112;2023-06-19T06:47:14;6.88;;;4.38;;
4889;SDS011;2459;42.268;23.112;2023-06-19T06:49:41;11.05;;;5.40;;
4889;SDS011;2459;42.268;23.112;2023-06-19T06:52:07;16.88;;;5.65;;
4889;SDS011;2459;42.268;23.112;2023-06-19T06:54:34;11.27;;;5.55;;
4889;SDS011;2459;42.268;23.112;2023-06-19T06:57:00;8.07;;;4.45;;
4889;SDS011;2459;42.268;23.112;2023-06-19T06:59:27;15.25;;;4.75;;
4889;SDS011;2459;42.268;23.112;2023-06-19T07:01:54;12.63;;;4.47;;
4889;SDS011;2459;42.268;23.112;2023-06-19T07:04:22;9.15;;;4.95;;
4889;SDS011;2459;42.268;23.112;2023-06-19T07:06:49;8.63;;;5.37;;
4889;SDS011;2459;42.268;23.112;2023-06-19T07:09:15;7.82;;;4.75;;
4889;SDS011;2459;42.268;23.112;2023-06-19T07:11:42;7.32;;;4.15;;
4889;SDS011;2459;42.268;23.112;2023-06-19T07:14:08;6.93;;;3.70;;
4889;SDS011;2459;42.268;23.112;2023-06-19T07:16:35;8.47;;;4.70;;
4889;SDS011;2459;42.268;23.112;2023-06-19T07:19:01;9.93;;;4.47;;
4889;SDS011;2459;42.268;23.112;2023-06-19T07:21:29;7.28;;;4.70;;
4889;SDS011;2459;42.268;23.112;2023-06-19T07:23:56;6.45;;;5.22;;
4889;SDS011;2459;42.268;23.112;2023-06-19T07:26:30;5.97;;;3.70;;
4889;SDS011;2459;42.268;23.112;2023-06-19T07:29:04;5.53;;;4.30;;
4889;SDS011;2459;42.268;23.112;2023-06-19T07:31:48;4.43;;;3.78;;
4889;SDS011;2459;42.268;23.112;2023-06-19T07:34:15;4.97;;;3.85;;
4889;SDS011;2459;42.268;23.112;2023-06-19T07:36:43;4.65;;;3.60;;
4889;SDS011;2459;42.268;23.112;2023-06-19T07:39:09;8.00;;;4.85;;
4889;SDS011;2459;42.268;23.112;2023-06-19T07:41:36;10.13;;;4.40;;
4889;SDS011;2459;42.268;23.112;2023-06-19T07:44:02;6.18;;;3.53;;
4889;SDS011;2459;42.268;23.112;2023-06-19T07:46:29;19.25;;;3.83;;
4889;SDS011;2459;42.268;23.112;2023-06-19T07:48:55;3.40;;;3.10;;
4889;SDS011;2459;42.268;23.112;2023-06-19T07:51:22;4.50;;;3.17;;
4889;SDS011;2459;42.268;23.112;2023-06-19T07:53:50;14.45;;;4.88;;
4889;SDS011;2459;42.268;23.112;2023-06-19T07:56:16;5.70;;;3.47;;
4889;SDS011;2459;42.268;23.112;2023-06-19T07:58:43;7.60;;;4.10;;
4889;SDS011;2459;42.268;23.112;2023-06-19T08:01:09;4.40;;;3.38;;
4889;SDS011;2459;42.268;23.112;2023-06-19T08:03:36;5.30;;;3.28;;
4889;SDS011;2459;42.268;23.112;2023-06-19T08:06:02;3.20;;;2.88;;
4889;SDS011;2459;42.268;23.112;2023-06-19T08:08:29;5.20;;;3.58;;
4889;SDS011;2459;42.268;23.112;2023-06-19T08:10:57;5.97;;;3.75;;
4889;SDS011;2459;42.268;23.112;2023-06-19T08:13:24;3.42;;;3.13;;
4889;SDS011;2459;42.268;23.112;2023-06-19T08:15:51;4.25;;;3.30;;
4889;SDS011;2459;42.268;23.112;2023-06-19T08:18:18;11.30;;;4.95;;
4889;SDS011;2459;42.268;23.112;2023-06-19T08:20:47;5.90;;;4.10;;
4889;SDS011;2459;42.268;23.112;2023-06-19T08:23:16;5.53;;;3.60;;
4889;SDS011;2459;42.268;23.112;2023-06-19T08:25:47;8.55;;;3.17;;
4889;SDS011;2459;42.268;23.112;2023-06-19T08:28:18;5.50;;;3.00;;
4889;SDS011;2459;42.268;23.112;2023-06-19T08:30:46;4.45;;;3.67;;
4889;SDS011;2459;42.268;23.112;2023-06-19T08:33:13;3.28;;;2.97;;
4889;SDS011;2459;42.268;23.112;2023-06-19T08:35:39;5.88;;;3.10;;
4889;SDS011;2459;42.268;23.112;2023-06-19T08:38:06;3.60;;;3.28;;
4889;SDS011;2459;42.268;23.112;2023-06-19T08:40:32;7.95;;;2.80;;
4889;SDS011;2459;42.268;23.112;2023-06-19T08:42:59;16.30;;;3.58;;
4889;SDS011;2459;42.268;23.112;2023-06-19T08:45:27;2.65;;;2.55;;
4889;SDS011;2459;42.268;23.112;2023-06-19T08:47:57;4.35;;;2.85;;
4889;SDS011;2459;42.268;23.112;2023-06-19T08:50:24;5.53;;;2.97;;
4889;SDS011;2459;42.268;23.112;2023-06-19T08:52:51;3.58;;;3.22;;
4889;SDS011;2459;42.268;23.112;2023-06-19T08:55:17;20.38;;;4.47;;
4889;SDS011;2459;42.268;23.112;2023-06-19T08:57:44;8.30;;;4.57;;
4889;SDS011;2459;42.268;23.112;2023-06-19T09:00:10;8.15;;;3.45;;
4889;SDS011;2459;42.268;23.112;2023-06-19T09:02:39;8.60;;;3.25;;
4889;SDS011;2459;42.268;23.112;2023-06-19T09:05:13;3.50;;;3.20;;
4889;SDS011;2459;42.268;23.112;2023-06-19T09:07:40;4.55;;;3.22;;
4889;SDS011;2459;42.268;23.112;2023-06-19T09:10:13;3.30;;;2.85;;
4889;SDS011;2459;42.268;23.112;2023-06-19T09:12:41;6.25;;;2.75;;
4889;SDS011;2459;42.268;23.112;2023-06-19T09:15:11;7.55;;;3.25;;
4889;SDS011;2459;42.268;23.112;2023-06-19T09:17:39;6.28;;;2.50;;
4889;SDS011;2459;42.268;23.112;2023-06-19T09:20:10;5.45;;;3.20;;
4889;SDS011;2459;42.268;23.112;2023-06-19T09:22:43;10.50;;;3.03;;
4889;SDS011;2459;42.268;23.112;2023-06-19T09:25:10;5.28;;;3.00;;
4889;SDS011;2459;42.268;23.112;2023-06-19T09:27:36;4.97;;;4.50;;
4889;SDS011;2459;42.268;23.112;2023-06-19T09:30:04;6.25;;;3.10;;
4889;SDS011;2459;42.268;23.112;2023-06-19T09:32:31;3.50;;;3.20;;
4889;SDS011;2459;42.268;23.112;2023-06-19T09:34:59;6.80;;;2.90;;
4889;SDS011;2459;42.268;23.112;2023-06-19T09:37:26;4.68;;;2.90;;
4889;SDS011;2459;42.268;23.112;2023-06-19T09:39:53;2.72;;;2.28;;
4889;SDS011;2459;42.268;23.112;2023-06-19T09:42:21;2.75;;;2.55;;
4889;SDS011;2459;42.268;23.112;2023-06-19T09:44:50;7.50;;;2.80;;
4889;SDS011;2459;42.268;23.112;2023-06-19T09:47:23;3.92;;;3.50;;
4889;SDS011;2459;42.268;23.112;2023-06-19T09:49:53;3.95;;;2.72;;
4889;SDS011;2459;42.268;23.112;2023-06-19T09:52:21;2.35;;;2.15;;
4889;SDS011;2459;42.268;23.112;2023-06-19T09:54:49;5.32;;;3.22;;
4889;SDS011;2459;42.268;23.112;2023-06-19T09:57:16;6.32;;;2.65;;
4889;SDS011;2459;42.268;23.112;2023-06-19T09:59:44;5.10;;;2.40;;
4889;SDS011;2459;42.268;23.112;2023-06-19T10:02:12;3.03;;;2.30;;
4889;SDS011;2459;42.268;23.112;2023-06-19T10:04:41;9.27;;;3.33;;
4889;SDS011;2459;42.268;23.112;2023-06-19T10:07:14;11.13;;;3.22;;
4889;SDS011;2459;42.268;23.112;2023-06-19T10:12:36;2.30;;;2.20;;
4889;SDS011;2459;42.268;23.112;2023-06-19T10:15:23;4.75;;;2.13;;
4889;SDS011;2459;42.268;23.112;2023-06-19T10:18:26;2.60;;;2.40;;
4889;SDS011;2459;42.268;23.112;2023-06-19T10:20:57;2.35;;;2.25;;
4889;SDS011;2459;42.268;23.112;2023-06-19T10:23:35;2.75;;;2.38;;
4889;SDS011;2459;42.268;23.112;2023-06-19T10:26:02;5.68;;;4.30;;
4889;SDS011;2459;42.268;23.112;2023-06-19T10:28:32;3.08;;;2.40;;
4889;SDS011;2459;42.268;23.112;2023-06-19T10:31:00;2.50;;;2.30;;
4889;SDS011;2459;42.268;23.112;2023-06-19T10:33:28;2.42;;;2.33;;
4889;SDS011;2459;42.268;23.112;2023-06-19T10:35:54;4.07;;;2.80;;
4889;SDS011;2459;42.268;23.112;2023-06-19T10:38:25;3.97;;;2.35;;
4889;SDS011;2459;42.268;23.112;2023-06-19T10:40:53;3.95;;;2.20;;
4889;SDS011;2459;42.268;23.112;2023-06-19T10:43:21;13.93;;;2.80;;
4889;SDS011;2459;42.268;23.112;2023-06-19T10:45:51;3.00;;;2.60;;
4889;SDS011;2459;42.268;23.112;2023-06-19T10:48:22;7.00;;;2.67;;
4889;SDS011;2459;42.268;23.112;2023-06-19T10:50:48;2.00;;;1.90;;
4889;SDS011;2459;42.268;23.112;2023-06-19T10:53:22;5.47;;;2.72;;
4889;SDS011;2459;42.268;23.112;2023-06-19T10:55:53;3.10;;;2.80;;
4889;SDS011;2459;42.268;23.112;2023-06-19T10:58:20;4.25;;;2.60;;
4889;SDS011;2459;42.268;23.112;2023-06-19T11:00:47;2.88;;;2.65;;
4889;SDS011;2459;42.268;23.112;2023-06-19T11:03:15;4.68;;;3.20;;
4889;SDS011;2459;42.268;23.112;2023-06-19T11:05:43;2.70;;;2.50;;
4889;SDS011;2459;42.268;23.112;2023-06-19T11:08:09;2.67;;;2.47;;
4889;SDS011;2459;42.268;23.112;2023-06-19T11:10:36;5.32;;;2.63;;
4889;SDS011;2459;42.268;23.112;2023-06-19T11:13:03;5.22;;;2.72;;
4889;SDS011;2459;42.268;23.112;2023-06-19T11:15:30;6.03;;;3.08;;
4889;SDS011;2459;42.268;23.112;2023-06-19T11:17:56;2.55;;;2.28;;
4889;SDS011;2459;42.268;23.112;2023-06-19T11:20:24;2.83;;;2.15;;
4889;SDS011;2459;42.268;23.112;2023-06-19T11:22:54;3.25;;;2.13;;
4889;SDS011;2459;42.268;23.112;2023-06-19T11:25:21;2.70;;;2.50;;
4889;SDS011;2459;42.268;23.112;2023-06-19T11:27:47;4.03;;;2.97;;
4889;SDS011;2459;42.268;23.112;2023-06-19T11:30:17;4.28;;;3.50;;
4889;SDS011;2459;42.268;23.112;2023-06-19T11:32:45;8.05;;;3.00;;
4889;SDS011;2459;42.268;23.112;2023-06-19T11:35:15;4.13;;;3.10;;
4889;SDS011;2459;42.268;23.112;2023-06-19T11:37:46;6.70;;;3.03;;
4889;SDS011;2459;42.268;23.112;2023-06-19T11:40:20;5.13;;;3.88;;
4889;SDS011;2459;42.268;23.112;2023-06-19T11:42:48;5.25;;;3.60;;
4889;SDS011;2459;42.268;23.112;2023-06-19T11:45:15;4.00;;;3.60;;
4889;SDS011;2459;42.268;23.112;2023-06-19T11:47:45;3.30;;;3.10;;
4889;SDS011;2459;42.268;23.112;2023-06-19T11:50:12;5.88;;;3.40;;
4889;SDS011;2459;42.268;23.112;2023-06-19T11:52:38;3.83;;;3.05;;
4889;SDS011;2459;42.268;23.112;2023-06-19T11:55:07;4.35;;;3.20;;
4889;SDS011;2459;42.268;23.112;2023-06-19T11:57:34;11.77;;;3.75;;
4889;SDS011;2459;42.268;23.112;2023-06-19T12:00:00;7.25;;;2.70;;
4889;SDS011;2459;42.268;23.112;2023-06-19T12:02:32;3.47;;;2.92;;
4889;SDS011;2459;42.268;23.112;2023-06-19T12:04:58;5.63;;;4.00;;
4889;SDS011;2459;42.268;23.112;2023-06-19T12:07:24;6.03;;;3.75;;
4889;SDS011;2459;42.268;23.112;2023-06-19T12:09:51;4.47;;;3.70;;
4889;SDS011;2459;42.268;23.112;2023-06-19T12:12:19;8.38;;;4.85;;
4889;SDS011;2459;42.268;23.112;2023-06-19T12:14:45;10.55;;;4.50;;
4889;SDS011;2459;42.268;23.112;2023-06-19T12:17:12;5.93;;;3.78;;
4889;SDS011;2459;42.268;23.112;2023-06-19T12:19:38;4.70;;;3.72;;
4889;SDS011;2459;42.268;23.112;2023-06-19T12:22:05;6.15;;;4.18;;
4889;SDS011;2459;42.268;23.112;2023-06-19T12:24:31;7.82;;;3.72;;
4889;SDS011;2459;42.268;23.112;2023-06-19T12:26:58;3.65;;;3.33;;
4889;SDS011;2459;42.268;23.112;2023-06-19T12:29:25;4.82;;;3.08;;
4889;SDS011;2459;42.268;23.112;2023-06-19T12:31:52;3.65;;;3.33;;
4889;SDS011;2459;42.268;23.112;2023-06-19T12:34:18;4.60;;;3.67;;
4889;SDS011;2459;42.268;23.112;2023-06-19T12:36:45;4.97;;;3.65;;
4889;SDS011;2459;42.268;23.112;2023-06-19T12:39:12;6.20;;;3.17;;
4889;SDS011;2459;42.268;23.112;2023-06-19T12:41:41;3.50;;;3.20;;
4889;SDS011;2459;42.268;23.112;2023-06-19T12:44:08;4.88;;;3.35;;
4889;SDS011;2459;42.268;23.112;2023-06-19T12:46:36;4.97;;;3.42;;
4889;SDS011;2459;42.268;23.112;2023-06-19T12:49:13;3.72;;;3.33;;
4889;SDS011;2459;42.268;23.112;2023-06-19T12:51:42;9.05;;;4.15;;
4889;SDS011;2459;42.268;23.112;2023-06-19T12:54:09;3.72;;;3.10;;
4889;SDS011;2459;42.268;23.112;2023-06-19T12:56:35;7.32;;;3.80;;
4889;SDS011;2459;42.268;23.112;2023-06-19T12:59:02;5.18;;;4.13;;
4889;SDS011;2459;42.268;23.112;2023-06-19T13:01:28;7.13;;;3.28;;
4889;SDS011;2459;42.268;23.112;2023-06-19T13:03:56;4.97;;;3.85;;
4889;SDS011;2459;42.268;23.112;2023-06-19T13:06:22;4.07;;;3.17;;
4889;SDS011;2459;42.268;23.112;2023-06-19T13:08:49;5.45;;;3.33;;
4889;SDS011;2459;42.268;23.112;2023-06-19T13:11:15;5.65;;;2.78;;
4889;SDS011;2459;42.268;23.112;2023-06-19T13:13:42;4.70;;;3.08;;
4889;SDS011;2459;42.268;23.112;2023-06-19T13:16:08;6.60;;;3.75;;
4889;SDS011;2459;42.268;23.112;2023-06-19T13:18:35;16.70;;;3.47;;
4889;SDS011;2459;42.268;23.112;2023-06-19T13:21:03;3.53;;;3.17;;
4889;SDS011;2459;42.268;23.112;2023-06-19T13:23:29;7.60;;;4.03;;
4889;SDS011;2459;42.268;23.112;2023-06-19T13:25:57;4.47;;;3.00;;
4889;SDS011;2459;42.268;23.112;2023-06-19T13:28:23;3.92;;;2.80;;
4889;SDS011;2459;42.268;23.112;2023-06-19T13:30:50;5.47;;;4.10;;
4889;SDS011;2459;42.268;23.112;2023-06-19T13:33:16;9.32;;;3.78;;
4889;SDS011;2459;42.268;23.112;2023-06-19T13:35:43;3.85;;;3.47;;
4889;SDS011;2459;42.268;23.112;2023-06-19T13:38:11;3.72;;;3.30;;
4889;SDS011;2459;42.268;23.112;2023-06-19T13:40:38;6.60;;;3.38;;
4889;SDS011;2459;42.268;23.112;2023-06-19T13:43:05;4.72;;;3.65;;
4889;SDS011;2459;42.268;23.112;2023-06-19T13:45:31;5.55;;;3.40;;
4889;SDS011;2459;42.268;23.112;2023-06-19T13:47:58;4.82;;;3.30;;
4889;SDS011;2459;42.268;23.112;2023-06-19T13:50:25;3.90;;;3.47;;
4889;SDS011;2459;42.268;23.112;2023-06-19T13:52:51;8.02;;;6.20;;
4889;SDS011;2459;42.268;23.112;2023-06-19T13:55:20;4.55;;;3.55;;
4889;SDS011;2459;42.268;23.112;2023-06-19T13:57:48;8.20;;;3.80;;
4889;SDS011;2459;42.268;23.112;2023-06-19T14:00:15;7.95;;;4.03;;
4889;SDS011;2459;42.268;23.112;2023-06-19T14:02:41;10.20;;;5.05;;
4889;SDS011;2459;42.268;23.112;2023-06-19T14:05:08;11.50;;;4.60;;
4889;SDS011;2459;42.268;23.112;2023-06-19T14:07:35;4.03;;;3.63;;
4889;SDS011;2459;42.268;23.112;2023-06-19T14:10:02;4.85;;;3.55;;
4889;SDS011;2459;42.268;23.112;2023-06-19T14:12:30;4.97;;;3.50;;
4889;SDS011;2459;42.268;23.112;2023-06-19T14:14:57;5.75;;;3.15;;
4889;SDS011;2459;42.268;23.112;2023-06-19T14:17:23;8.80;;;4.45;;
4889;SDS011;2459;42.268;23.112;2023-06-19T14:19:50;6.07;;;3.20;;
4889;SDS011;2459;42.268;23.112;2023-06-19T14:22:16;6.63;;;3.28;;
4889;SDS011;2459;42.268;23.112;2023-06-19T14:24:43;39.60;;;5.35;;
4889;SDS011;2459;42.268;23.112;2023-06-19T14:27:09;9.00;;;4.07;;
4889;SDS011;2459;42.268;23.112;2023-06-19T14:29:37;6.07;;;3.05;;
4889;SDS011;2459;42.268;23.112;2023-06-19T14:32:04;3.72;;;3.42;;
4889;SDS011;2459;42.268;23.112;2023-06-19T14:34:30;4.05;;;3.63;;
4889;SDS011;2459;42.268;23.112;2023-06-19T14:36:57;3.35;;;3.05;;
4889;SDS011;2459;42.268;23.112;2023-06-19T14:39:23;5.72;;;3.78;;
4889;SDS011;2459;42.268;23.112;2023-06-19T14:41:50;4.75;;;3.25;;
4889;SDS011;2459;42.268;23.112;2023-06-19T14:44:19;4.07;;;3.33;;
4889;SDS011;2459;42.268;23.112;2023-06-19T14:46:47;4.20;;;3.80;;
4889;SDS011;2459;42.268;23.112;2023-06-19T14:49:14;5.57;;;3.63;;
4889;SDS011;2459;42.268;23.112;2023-06-19T14:51:41;3.95;;;3.65;;
4889;SDS011;2459;42.268;23.112;2023-06-19T14:54:08;6.53;;;3.70;;
4889;SDS011;2459;42.268;23.112;2023-06-19T14:56:34;4.25;;;3.85;;
4889;SDS011;2459;42.268;23.112;2023-06-19T14:59:00;5.57;;;4.07;;
4889;SDS011;2459;42.268;23.112;2023-06-19T15:01:27;7.10;;;2.97;;